createdAt,value
2023-02-11T05:00:42.075Z,99.99
2023-02-11T05:01:42.127Z,99.99
2023-02-11T05:02:42.254Z,99.99
2023-02-11T05:03:42.062Z,99.99
2023-02-11T05:04:42.497Z,99.99
2023-02-11T05:05:42.446Z,99.99
2023-02-11T05:06:42.395Z,99.99
2023-02-11T05:07:43.147Z,99.99
2023-02-11T05:08:42.739Z,99.99
2023-02-11T05:09:46.511Z,99.99
2023-02-11T05:10:43.263Z,99.99
2023-02-11T05:11:42.831Z,99.99
2023-02-11T05:12:44.482Z,99.99
2023-02-11T05:13:42.684Z,99.99
2023-02-11T05:14:41.906Z,99.99
2023-02-11T05:15:41.876Z,99.99
2023-02-11T05:16:41.958Z,99.99
2023-02-11T05:17:41.833Z,99.99
2023-02-11T05:18:41.938Z,99.99
2023-02-11T05:19:41.814Z,99.99
2023-02-11T05:20:41.806Z,99.99
2023-02-11T05:21:53.107Z,99.99
2023-02-11T05:22:42.827Z,99.99
2023-02-11T05:23:41.768Z,99.99
2023-02-11T05:24:41.796Z,99.99
2023-02-11T05:25:41.756Z,99.99
2023-02-11T05:26:41.724Z,99.99
2023-02-11T05:27:41.711Z,99.99
2023-02-11T05:28:41.680Z,99.99
2023-02-11T05:29:41.708Z,99.99
2023-02-11T05:30:41.853Z,99.84
2023-02-11T05:31:41.655Z,99.41
2023-02-11T05:32:41.656Z,99.05
2023-02-11T05:33:41.661Z,98.53
2023-02-11T05:34:41.605Z,98.00
2023-02-11T05:35:41.644Z,97.48
2023-02-11T05:36:41.573Z,97.17
2023-02-11T05:37:41.588Z,97.17
2023-02-11T05:38:41.563Z,97.06
2023-02-11T05:39:41.564Z,96.75
2023-02-11T05:40:41.603Z,96.43
2023-02-11T05:41:41.522Z,96.43
2023-02-11T05:42:41.495Z,96.53
2023-02-11T05:43:41.519Z,96.64
2023-02-11T05:44:41.491Z,96.85
2023-02-11T05:45:41.517Z,96.95
2023-02-11T05:46:41.583Z,97.06
2023-02-11T05:47:41.457Z,96.85
2023-02-11T05:48:41.423Z,96.95
2023-02-11T05:49:41.468Z,97.27
2023-02-11T05:50:41.409Z,97.48
2023-02-11T05:51:41.407Z,97.69
2023-02-11T05:52:41.476Z,97.64
2023-02-11T05:53:41.393Z,97.69
2023-02-11T05:54:41.347Z,97.54
2023-02-11T05:55:41.367Z,97.33
2023-02-11T05:56:43.781Z,97.23
2023-02-11T05:57:41.330Z,97.33
2023-02-11T05:58:51.087Z,97.48
2023-02-11T05:59:43.071Z,97.48
2023-02-11T06:00:44.014Z,97.48
2023-02-11T06:01:41.291Z,97.48
2023-02-11T06:02:41.295Z,97.69
2023-02-11T06:03:41.334Z,97.58
2023-02-11T06:04:41.223Z,97.58
2023-02-11T06:05:41.258Z,97.48
2023-02-11T06:06:41.198Z,97.58
2023-02-11T06:07:41.198Z,97.90
2023-02-11T06:08:41.210Z,98.43
2023-02-11T06:09:41.208Z,98.74
2023-02-11T06:10:41.157Z,98.85
2023-02-11T06:11:41.149Z,98.85
2023-02-11T06:12:41.117Z,98.95
2023-02-11T06:13:41.177Z,98.80
2023-02-11T06:14:41.160Z,98.49
2023-02-11T06:15:41.191Z,98.28
2023-02-11T06:16:41.075Z,98.28
2023-02-11T06:17:41.084Z,98.07
2023-02-11T06:18:41.072Z,98.17
2023-02-11T06:19:41.066Z,97.96
2023-02-11T06:20:41.069Z,97.92
2023-02-11T06:21:44.284Z,97.92
2023-02-11T06:22:41.023Z,97.92
2023-02-11T06:23:41.015Z,97.92
2023-02-11T06:24:59.800Z,97.81
2023-02-11T06:25:42.031Z,97.71
2023-02-11T06:26:40.975Z,97.71
2023-02-11T06:27:40.959Z,97.92
2023-02-11T06:28:42.102Z,97.92
2023-02-11T06:29:40.961Z,98.02
2023-02-11T06:30:40.904Z,98.02
2023-02-11T06:31:41.046Z,97.92
2023-02-11T06:32:44.399Z,97.92
2023-02-11T06:33:40.859Z,97.92
2023-02-11T06:34:40.869Z,97.81
2023-02-11T06:35:40.862Z,97.92
2023-02-11T06:36:40.856Z,97.92
2023-02-11T06:37:40.944Z,97.92
2023-02-11T06:38:40.814Z,97.92
2023-02-11T06:39:40.802Z,97.98
2023-02-11T06:40:40.818Z,98.08
2023-02-11T06:41:40.794Z,98.08
2023-02-11T06:42:40.776Z,98.08
2023-02-11T06:43:40.847Z,97.87
2023-02-11T06:44:40.805Z,97.77
2023-02-11T06:45:40.743Z,97.66
2023-02-11T06:46:40.778Z,97.87
2023-02-11T06:47:40.714Z,97.87
2023-02-11T06:48:43.078Z,97.87
2023-02-11T06:49:40.722Z,97.87
2023-02-11T06:50:40.679Z,97.77
2023-02-11T06:51:40.645Z,97.77
2023-02-11T06:52:40.643Z,97.87
2023-02-11T06:53:40.620Z,98.19
2023-02-11T06:54:40.625Z,98.39
2023-02-11T06:55:40.620Z,98.61
2023-02-11T06:56:40.706Z,99.13
2023-02-11T06:57:40.583Z,99.66
2023-02-11T06:58:40.578Z,99.99
2023-02-11T06:59:40.690Z,99.99
2023-02-11T07:00:40.602Z,99.99
2023-02-11T07:01:40.610Z,99.99
2023-02-11T07:02:40.589Z,99.99
2023-02-11T07:03:40.502Z,99.99
2023-02-11T07:04:40.719Z,99.99
2023-02-11T07:05:40.459Z,99.99
2023-02-11T07:06:40.470Z,99.99
2023-02-11T07:07:40.431Z,99.99
2023-02-11T07:08:40.518Z,99.99
2023-02-11T07:09:40.950Z,99.99
2023-02-11T07:10:40.483Z,99.99
2023-02-11T07:11:40.396Z,99.99
2023-02-11T07:12:40.404Z,99.99
2023-02-11T07:13:40.354Z,99.99
2023-02-11T07:14:40.403Z,99.99
2023-02-11T07:15:40.420Z,99.99
2023-02-11T07:16:40.362Z,99.88
2023-02-11T07:17:40.322Z,99.57
2023-02-11T07:18:40.344Z,99.88
2023-02-11T07:19:40.302Z,99.99
2023-02-11T07:20:40.365Z,99.99
2023-02-11T07:21:40.410Z,99.99
2023-02-11T07:22:40.277Z,99.99
2023-02-11T07:23:40.222Z,99.99
2023-02-11T07:24:40.279Z,99.99
2023-02-11T07:25:40.311Z,99.99
2023-02-11T07:26:40.243Z,99.99
2023-02-11T07:27:40.193Z,99.99
2023-02-11T07:28:40.291Z,99.99
2023-02-11T07:29:40.187Z,99.99
2023-02-11T07:30:40.452Z,99.99
2023-02-11T07:31:40.269Z,99.99
2023-02-11T07:32:40.132Z,99.59
2023-02-11T07:33:40.161Z,97.81
2023-02-11T07:34:40.170Z,95.62
2023-02-11T07:35:42.605Z,94.99
2023-02-11T07:36:41.297Z,94.57
2023-02-11T07:37:40.049Z,93.74
2023-02-11T07:38:40.097Z,93.48
2023-02-11T07:39:40.027Z,92.66
2023-02-11T07:40:40.037Z,90.95
2023-02-11T07:41:40.026Z,89.39
2023-02-11T07:42:40.906Z,87.68
2023-02-11T07:43:39.985Z,86.18
2023-02-11T07:44:40.028Z,84.78
2023-02-11T07:45:39.956Z,84.26
2023-02-11T07:46:40.033Z,84.26
2023-02-11T07:47:39.926Z,83.63
2023-02-11T07:48:40.057Z,82.65
2023-02-11T07:49:39.904Z,81.26
2023-02-11T07:50:39.943Z,80.50
2023-02-11T07:51:39.891Z,80.15
2023-02-11T07:52:39.882Z,78.83
2023-02-11T07:53:39.866Z,78.17
2023-02-11T07:54:39.951Z,76.78
2023-02-11T07:55:39.821Z,75.95
2023-02-11T07:56:39.823Z,76.06
2023-02-11T07:57:39.866Z,75.46
2023-02-11T07:58:39.808Z,75.81
2023-02-11T07:59:39.769Z,75.81
2023-02-11T08:00:40.419Z,76.02
2023-02-11T08:01:39.759Z,76.99
2023-02-11T08:02:39.739Z,77.13
2023-02-11T08:03:39.720Z,77.34
2023-02-11T08:04:39.752Z,78.38
2023-02-11T08:05:40.375Z,78.69
2023-02-11T08:06:39.702Z,78.52
2023-02-11T08:07:39.667Z,78.83
2023-02-11T08:08:39.718Z,78.87
2023-02-11T08:09:39.649Z,79.39
2023-02-11T08:10:39.676Z,79.18
2023-02-11T08:11:39.664Z,79.18
2023-02-11T08:12:39.627Z,80.47
2023-02-11T08:13:39.602Z,81.09
2023-02-11T08:14:39.603Z,81.30
2023-02-11T08:15:39.552Z,81.30
2023-02-11T08:16:41.269Z,81.62
2023-02-11T08:17:39.538Z,81.62
2023-02-11T08:18:39.702Z,82.03
2023-02-11T08:19:39.500Z,82.03
2023-02-11T08:20:39.530Z,82.24
2023-02-11T08:21:39.503Z,82.65
2023-02-11T08:22:40.089Z,82.76
2023-02-11T08:23:39.476Z,83.07
2023-02-11T08:24:39.537Z,83.18
2023-02-11T08:25:39.427Z,82.65
2023-02-11T08:26:39.479Z,82.24
2023-02-11T08:27:39.399Z,81.65
2023-02-11T08:28:40.069Z,81.65
2023-02-11T08:29:39.424Z,81.86
2023-02-11T08:30:39.487Z,82.03
2023-02-11T08:31:39.598Z,82.34
2023-02-11T08:32:39.536Z,81.93
2023-02-11T08:33:39.561Z,81.47
2023-02-11T08:34:39.935Z,81.05
2023-02-11T08:35:39.304Z,80.74
2023-02-11T08:36:39.367Z,80.60
2023-02-11T08:37:39.287Z,80.60
2023-02-11T08:38:39.300Z,79.63
2023-02-11T08:39:39.281Z,78.80
2023-02-11T08:40:39.421Z,78.90
2023-02-11T08:41:39.304Z,78.80
2023-02-11T08:42:39.242Z,79.32
2023-02-11T08:43:39.226Z,78.86
2023-02-11T08:44:39.236Z,78.45
2023-02-11T08:45:41.282Z,78.55
2023-02-11T08:46:39.180Z,78.14
2023-02-11T08:47:39.156Z,78.14
2023-02-11T08:48:39.153Z,78.66
2023-02-11T08:49:39.131Z,78.14
2023-02-11T08:50:39.151Z,78.28
2023-02-11T08:51:39.759Z,78.80
2023-02-11T08:52:39.104Z,79.42
2023-02-11T08:53:39.078Z,80.19
2023-02-11T08:54:39.202Z,80.71
2023-02-11T08:55:39.051Z,80.91
2023-02-11T08:56:39.161Z,80.91
2023-02-11T08:57:39.563Z,80.95
2023-02-11T08:58:39.058Z,81.26
2023-02-11T08:59:39.017Z,81.47
2023-02-11T09:00:39.024Z,81.79
2023-02-11T09:01:39.019Z,81.85
2023-02-11T09:02:39.160Z,81.54
2023-02-11T09:03:40.254Z,81.12
2023-02-11T09:04:39.055Z,81.19
2023-02-11T09:05:38.935Z,80.98
2023-02-11T09:06:38.970Z,80.57
2023-02-11T09:07:38.914Z,79.73
2023-02-11T09:08:38.895Z,79.11
2023-02-11T09:09:40.020Z,78.86
2023-02-11T09:10:38.877Z,78.59
2023-02-11T09:11:38.874Z,78.76
2023-02-11T09:12:38.841Z,78.76
2023-02-11T09:13:38.812Z,78.76
2023-02-11T09:14:38.818Z,78.55
2023-02-11T09:15:38.971Z,78.69
2023-02-11T09:16:38.867Z,78.86
2023-02-11T09:17:38.753Z,78.45
2023-02-11T09:18:38.772Z,77.51
2023-02-11T09:19:38.930Z,77.30
2023-02-11T09:20:39.430Z,77.40
2023-02-11T09:21:38.735Z,77.58
2023-02-11T09:22:38.776Z,77.69
2023-02-11T09:23:38.714Z,78.41
2023-02-11T09:24:38.712Z,77.37
2023-02-11T09:25:38.673Z,77.16
2023-02-11T09:26:41.253Z,77.13
2023-02-11T09:27:38.668Z,77.03
2023-02-11T09:28:39.145Z,76.72
2023-02-11T09:29:38.650Z,76.72
2023-02-11T09:30:38.737Z,76.92
2023-02-11T09:31:38.850Z,76.72
2023-02-11T09:32:39.209Z,76.68
2023-02-11T09:33:38.658Z,76.57
2023-02-11T09:34:38.590Z,76.37
2023-02-11T09:35:38.563Z,76.47
2023-02-11T09:36:38.574Z,76.26
2023-02-11T09:37:38.508Z,76.37
2023-02-11T09:38:39.016Z,76.12
2023-02-11T09:39:38.544Z,76.02
2023-02-11T09:40:38.554Z,76.33
2023-02-11T09:41:38.469Z,76.54
2023-02-11T09:42:38.528Z,76.54
2023-02-11T09:43:38.473Z,76.23
2023-02-11T09:44:40.365Z,75.98
2023-02-11T09:45:38.429Z,75.60
2023-02-11T09:46:38.455Z,75.29
2023-02-11T09:47:38.415Z,75.29
2023-02-11T09:48:38.396Z,75.67
2023-02-11T09:49:38.386Z,75.78
2023-02-11T09:50:38.525Z,75.78
2023-02-11T09:51:38.451Z,75.88
2023-02-11T09:52:38.401Z,76.09
2023-02-11T09:53:38.423Z,75.95
2023-02-11T09:54:38.321Z,75.43
2023-02-11T09:55:38.893Z,75.33
2023-02-11T09:56:38.311Z,74.91
2023-02-11T09:57:38.300Z,74.88
2023-02-11T09:58:38.273Z,74.36
2023-02-11T09:59:38.242Z,73.84
2023-02-11T10:00:38.268Z,73.84
2023-02-11T10:01:39.466Z,73.60
2023-02-11T10:02:38.261Z,73.39
2023-02-11T10:03:38.192Z,73.25
2023-02-11T10:04:38.287Z,72.84
2023-02-11T10:05:38.172Z,72.63
2023-02-11T10:06:38.183Z,72.74
2023-02-11T10:07:39.626Z,72.94
2023-02-11T10:08:38.195Z,72.74
2023-02-11T10:09:38.118Z,72.94
2023-02-11T10:10:38.115Z,73.05
2023-02-11T10:11:38.123Z,72.91
2023-02-11T10:12:38.084Z,72.71
2023-02-11T10:13:40.864Z,72.71
2023-02-11T10:14:38.101Z,72.39
2023-02-11T10:15:38.162Z,71.98
2023-02-11T10:16:38.037Z,71.67
2023-02-11T10:17:38.020Z,71.98
2023-02-11T10:18:38.042Z,72.32
2023-02-11T10:19:39.192Z,72.11
2023-02-11T10:20:37.995Z,72.42
2023-02-11T10:21:37.972Z,72.53
2023-02-11T10:22:37.988Z,72.63
2023-02-11T10:23:37.981Z,72.74
2023-02-11T10:24:37.938Z,72.74
2023-02-11T10:25:38.456Z,72.74
2023-02-11T10:26:37.920Z,72.42
2023-02-11T10:27:37.901Z,72.63
2023-02-11T10:28:37.958Z,72.74
2023-02-11T10:29:37.890Z,72.63
2023-02-11T10:30:37.898Z,72.53
2023-02-11T10:31:38.073Z,72.11
2023-02-11T10:32:37.825Z,72.29
2023-02-11T10:33:37.796Z,71.46
2023-02-11T10:34:37.820Z,70.60
2023-02-11T10:35:37.805Z,70.70
2023-02-11T10:36:37.787Z,70.36
2023-02-11T10:37:39.032Z,70.15
2023-02-11T10:38:37.765Z,70.05
2023-02-11T10:39:37.765Z,69.29
2023-02-11T10:40:37.735Z,69.09
2023-02-11T10:41:37.692Z,68.74
2023-02-11T10:42:37.701Z,68.33
2023-02-11T10:43:37.732Z,68.12
2023-02-11T10:44:37.677Z,67.91
2023-02-11T10:45:37.641Z,68.12
2023-02-11T10:46:37.701Z,67.82
2023-02-11T10:47:37.674Z,67.30
2023-02-11T10:48:37.610Z,67.50
2023-02-11T10:49:37.722Z,67.40
2023-02-11T10:50:37.575Z,67.47
2023-02-11T10:51:37.645Z,67.27
2023-02-11T10:52:37.558Z,67.16
2023-02-11T10:53:37.573Z,66.72
2023-02-11T10:54:37.520Z,66.51
2023-02-11T10:55:37.640Z,66.41
2023-02-11T10:56:37.505Z,66.93
2023-02-11T10:57:37.558Z,67.24
2023-02-11T10:58:37.478Z,66.10
2023-02-11T10:59:37.478Z,66.30
2023-02-11T11:00:38.095Z,66.61
2023-02-11T11:01:37.488Z,66.93
2023-02-11T11:02:37.426Z,66.41
2023-02-11T11:03:37.478Z,66.41
2023-02-11T11:04:37.462Z,66.89
2023-02-11T11:05:37.423Z,66.27
2023-02-11T11:06:37.700Z,65.97
2023-02-11T11:07:37.397Z,65.66
2023-02-11T11:08:37.364Z,65.83
2023-02-11T11:09:37.436Z,65.73
2023-02-11T11:10:37.327Z,66.14
2023-02-11T11:11:37.340Z,65.83
2023-02-11T11:12:39.026Z,66.24
2023-02-11T11:13:37.326Z,65.80
2023-02-11T11:14:49.014Z,65.28
2023-02-11T11:15:37.309Z,65.28
2023-02-11T11:16:42.201Z,65.28
2023-02-11T11:17:37.278Z,64.87
2023-02-11T11:18:37.932Z,64.87
2023-02-11T11:19:37.238Z,65.18
2023-02-11T11:20:37.195Z,65.39
2023-02-11T11:21:37.220Z,65.49
2023-02-11T11:22:37.185Z,65.67
2023-02-11T11:23:37.196Z,65.25
2023-02-11T11:24:37.260Z,65.56
2023-02-11T11:25:37.212Z,65.56
2023-02-11T11:26:37.182Z,65.53
2023-02-11T11:27:37.168Z,65.22
2023-02-11T11:28:37.116Z,64.92
2023-02-11T11:29:37.109Z,64.92
2023-02-11T11:30:37.266Z,64.61
2023-02-11T11:31:37.246Z,64.92
2023-02-11T11:32:37.063Z,65.09
2023-02-11T11:33:37.104Z,64.68
2023-02-11T11:34:37.007Z,64.27
2023-02-11T11:35:37.018Z,64.37
2023-02-11T11:36:37.680Z,64.37
2023-02-11T11:37:37.008Z,64.27
2023-02-11T11:38:36.952Z,63.96
2023-02-11T11:39:36.963Z,64.17
2023-02-11T11:40:36.931Z,64.47
2023-02-11T11:41:36.983Z,64.34
2023-02-11T11:42:37.590Z,63.93
2023-02-11T11:43:36.927Z,63.93
2023-02-11T11:44:36.878Z,64.14
2023-02-11T11:45:36.967Z,63.93
2023-02-11T11:46:38.401Z,63.93
2023-02-11T11:47:36.865Z,63.72
2023-02-11T11:48:37.030Z,63.69
2023-02-11T11:49:36.925Z,64.00
2023-02-11T11:50:36.785Z,63.59
2023-02-11T11:51:36.896Z,63.90
2023-02-11T11:52:36.825Z,63.59
2023-02-11T11:53:36.800Z,63.59
2023-02-11T11:54:36.813Z,62.84
2023-02-11T11:55:36.761Z,62.33
2023-02-11T11:56:36.750Z,62.95
2023-02-11T11:57:36.734Z,62.33
2023-02-11T11:58:36.719Z,62.02
2023-02-11T11:59:36.754Z,62.12
2023-02-11T12:00:36.668Z,62.30
2023-02-11T12:01:36.859Z,62.40
2023-02-11T12:02:36.658Z,62.30
2023-02-11T12:03:36.650Z,61.58
2023-02-11T12:04:36.761Z,61.76
2023-02-11T12:05:36.652Z,61.65
2023-02-11T12:06:36.604Z,61.76
2023-02-11T12:07:36.594Z,60.93
2023-02-11T12:08:36.622Z,61.04
2023-02-11T12:09:36.636Z,60.60
2023-02-11T12:10:36.551Z,60.60
2023-02-11T12:11:36.564Z,60.49
2023-02-11T12:12:36.625Z,60.80
2023-02-11T12:13:36.533Z,60.88
2023-02-11T12:14:36.692Z,59.95
2023-02-11T12:15:36.568Z,59.82
2023-02-11T12:16:36.542Z,59.62
2023-02-11T12:17:36.529Z,59.31
2023-02-11T12:18:36.457Z,59.34
2023-02-11T12:19:36.430Z,59.44
2023-02-11T12:20:36.586Z,59.85
2023-02-11T12:21:36.427Z,59.44
2023-02-11T12:22:36.378Z,59.82
2023-02-11T12:23:36.407Z,59.72
2023-02-11T12:24:36.356Z,59.69
2023-02-11T12:25:36.487Z,59.18
2023-02-11T12:26:36.564Z,58.77
2023-02-11T12:27:36.358Z,59.18
2023-02-11T12:28:36.344Z,58.67
2023-02-11T12:29:36.310Z,58.67
2023-02-11T12:30:36.298Z,59.18
2023-02-11T12:31:36.458Z,58.97
2023-02-11T12:32:36.280Z,59.38
2023-02-11T12:33:36.336Z,59.25
2023-02-11T12:34:36.237Z,59.12
2023-02-11T12:35:36.509Z,58.20
2023-02-11T12:36:43.260Z,58.40
2023-02-11T12:37:44.835Z,58.00
2023-02-11T12:38:36.267Z,58.51
2023-02-11T12:39:36.229Z,58.38
2023-02-11T12:40:36.205Z,58.04
2023-02-11T12:41:36.239Z,57.51
2023-02-11T12:42:36.169Z,56.48
2023-02-11T12:43:36.717Z,56.48
2023-02-11T12:44:36.171Z,56.79
2023-02-11T12:45:37.966Z,56.59
2023-02-11T12:46:36.245Z,56.48
2023-02-11T12:47:36.214Z,56.79
2023-02-11T12:48:36.518Z,57.46
2023-02-11T12:49:36.440Z,58.07
2023-02-11T12:50:36.243Z,58.30
2023-02-11T12:51:36.054Z,58.51
2023-02-11T12:52:36.051Z,58.10
2023-02-11T12:53:36.212Z,57.89
2023-02-11T12:54:36.171Z,58.51
2023-02-11T12:55:37.005Z,58.61
2023-02-11T12:56:36.346Z,58.10
2023-02-11T12:57:36.099Z,57.69
2023-02-11T12:58:45.063Z,58.30
2023-02-11T12:59:37.013Z,59.02
2023-02-11T13:00:35.971Z,59.12
2023-02-11T13:01:35.984Z,59.64
2023-02-11T13:02:36.011Z,59.64
2023-02-11T13:03:36.100Z,59.56
2023-02-11T13:04:36.110Z,60.72
2023-02-11T13:05:36.248Z,60.31
2023-02-11T13:06:35.831Z,60.54
2023-02-11T13:07:35.866Z,61.26
2023-02-11T13:08:35.834Z,61.36
2023-02-11T13:09:35.803Z,60.64
2023-02-11T13:10:36.128Z,60.85
2023-02-11T13:11:35.827Z,61.18
2023-02-11T13:12:36.320Z,60.77
2023-02-11T13:13:35.791Z,60.67
2023-02-11T13:14:36.029Z,60.67
2023-02-11T13:15:35.975Z,60.64
2023-02-11T13:16:35.893Z,60.67
2023-02-11T13:17:36.365Z,60.77
2023-02-11T13:18:35.711Z,60.75
2023-02-11T13:19:35.735Z,60.03
2023-02-11T13:20:35.949Z,60.16
2023-02-11T13:21:35.875Z,60.16
2023-02-11T13:22:35.721Z,60.16
2023-02-11T13:23:36.371Z,60.47
2023-02-11T13:24:35.863Z,60.47
2023-02-11T13:25:35.809Z,60.44
2023-02-11T13:26:35.671Z,60.23
2023-02-11T13:27:35.782Z,60.13
2023-02-11T13:28:35.651Z,60.10
2023-02-11T13:29:35.573Z,59.89
2023-02-11T13:30:35.642Z,59.66
2023-02-11T13:31:42.863Z,59.12
2023-02-11T13:32:35.469Z,59.23
2023-02-11T13:33:42.515Z,58.72
2023-02-11T13:34:42.461Z,58.58
2023-02-11T13:35:42.472Z,58.28
2023-02-11T13:36:35.548Z,58.40
2023-02-11T13:37:35.456Z,58.51
2023-02-11T13:38:35.399Z,59.15
2023-02-11T13:39:35.396Z,59.25
2023-02-11T13:40:35.408Z,59.02
2023-02-11T13:41:35.388Z,58.81
2023-02-11T13:42:35.430Z,58.95
2023-02-11T13:43:35.359Z,59.46
2023-02-11T13:44:35.386Z,59.12
2023-02-11T13:45:35.395Z,59.33
2023-02-11T13:46:35.334Z,59.33
2023-02-11T13:47:35.336Z,58.81
2023-02-11T13:48:35.366Z,58.89
2023-02-11T13:49:35.395Z,58.48
2023-02-11T13:50:35.392Z,58.45
2023-02-11T13:51:35.253Z,58.76
2023-02-11T13:52:35.388Z,58.56
2023-02-11T13:53:35.301Z,58.66
2023-02-11T13:54:35.183Z,58.56
2023-02-11T13:55:35.200Z,58.89
2023-02-11T13:56:35.176Z,59.30
2023-02-11T13:57:35.294Z,59.50
2023-02-11T13:58:35.178Z,59.92
2023-02-11T13:59:35.164Z,60.46
2023-02-11T14:00:35.138Z,60.66
2023-02-11T14:01:35.142Z,60.49
2023-02-11T14:02:35.115Z,60.89
2023-02-11T14:03:35.100Z,61.23
2023-02-11T14:04:35.129Z,61.85
2023-02-11T14:05:35.057Z,62.15
2023-02-11T14:06:35.081Z,62.59
2023-02-11T14:07:35.027Z,62.70
2023-02-11T14:08:37.572Z,63.10
2023-02-11T14:09:35.008Z,63.00
2023-02-11T14:10:35.100Z,62.49
2023-02-11T14:11:34.980Z,62.41
2023-02-11T14:12:34.944Z,62.83
2023-02-11T14:13:34.994Z,62.93
2023-02-11T14:14:34.945Z,63.37
2023-02-11T14:15:34.971Z,63.68
2023-02-11T14:16:38.280Z,63.57
2023-02-11T14:17:35.036Z,63.47
2023-02-11T14:18:34.882Z,63.60
2023-02-11T14:19:34.882Z,63.50
2023-02-11T14:20:41.863Z,63.50
2023-02-11T14:21:41.989Z,63.60
2023-02-11T14:22:41.839Z,63.91
2023-02-11T14:23:41.863Z,63.68
2023-02-11T14:24:42.869Z,63.47
2023-02-11T14:25:34.887Z,63.68
2023-02-11T14:26:35.181Z,64.19
2023-02-11T14:27:34.860Z,64.19
2023-02-11T14:28:34.915Z,64.37
2023-02-11T14:29:34.761Z,64.16
2023-02-11T14:30:34.855Z,63.85
2023-02-11T14:31:35.165Z,63.85
2023-02-11T14:32:35.020Z,63.75
2023-02-11T14:33:34.833Z,63.82
2023-02-11T14:34:34.712Z,63.72
2023-02-11T14:35:34.728Z,63.59
2023-02-11T14:36:34.676Z,63.39
2023-02-11T14:37:34.709Z,63.72
2023-02-11T14:38:34.970Z,64.03
2023-02-11T14:39:34.617Z,64.00
2023-02-11T14:40:34.843Z,64.00
2023-02-11T14:41:34.618Z,63.79
2023-02-11T14:42:34.638Z,64.00
2023-02-11T14:43:34.568Z,64.10
2023-02-11T14:44:34.704Z,64.51
2023-02-11T14:45:34.676Z,64.41
2023-02-11T14:46:34.798Z,64.41
2023-02-11T14:47:34.552Z,64.59
2023-02-11T14:48:34.580Z,64.07
2023-02-11T14:49:35.123Z,64.07
2023-02-11T14:50:34.557Z,64.86
2023-02-11T14:51:35.287Z,63.84
2023-02-11T14:52:34.606Z,63.43
2023-02-11T14:53:34.615Z,63.53
2023-02-11T14:54:34.905Z,63.43
2023-02-11T14:55:34.424Z,63.73
2023-02-11T14:56:34.640Z,63.84
2023-02-11T14:57:34.646Z,63.84
2023-02-11T14:58:34.650Z,63.64
2023-02-11T14:59:34.420Z,63.70
2023-02-11T15:00:34.871Z,63.09
2023-02-11T15:01:41.374Z,63.40
2023-02-11T15:02:34.587Z,63.09
2023-02-11T15:03:34.282Z,62.88
2023-02-11T15:04:34.307Z,63.09
2023-02-11T15:05:34.255Z,63.50
2023-02-11T15:06:34.279Z,63.70
2023-02-11T15:07:34.288Z,64.32
2023-02-11T15:08:34.254Z,64.35
2023-02-11T15:09:34.224Z,64.56
2023-02-11T15:10:34.225Z,64.79
2023-02-11T15:11:34.190Z,65.20
2023-02-11T15:12:34.248Z,65.41
2023-02-11T15:13:34.184Z,65.30
2023-02-11T15:14:34.206Z,65.20
2023-02-11T15:15:34.169Z,65.48
2023-02-11T15:16:34.145Z,65.61
2023-02-11T15:17:34.100Z,65.81
2023-02-11T15:18:34.770Z,65.92
2023-02-11T15:19:34.740Z,66.12
2023-02-11T15:20:34.133Z,66.22
2023-02-11T15:21:34.073Z,66.22
2023-02-11T15:22:34.079Z,66.33
2023-02-11T15:23:34.090Z,66.46
2023-02-11T15:24:34.142Z,66.77
2023-02-11T15:25:34.359Z,66.97
2023-02-11T15:26:34.024Z,67.18
2023-02-11T15:27:33.979Z,67.08
2023-02-11T15:28:34.069Z,66.97
2023-02-11T15:29:33.948Z,67.08
2023-02-11T15:30:34.108Z,67.28
2023-02-11T15:31:35.165Z,67.49
2023-02-11T15:32:33.973Z,67.49
2023-02-11T15:33:33.899Z,67.59
2023-02-11T15:34:33.919Z,67.59
2023-02-11T15:35:33.979Z,68.00
2023-02-11T15:36:33.881Z,67.83
2023-02-11T15:37:33.866Z,68.03
2023-02-11T15:38:33.955Z,68.24
2023-02-11T15:39:33.850Z,68.13
2023-02-11T15:40:33.872Z,68.03
2023-02-11T15:41:33.834Z,68.24
2023-02-11T15:42:47.192Z,68.34
2023-02-11T15:43:34.795Z,68.44
2023-02-11T15:44:33.784Z,68.75
2023-02-11T15:45:34.046Z,68.85
2023-02-11T15:46:33.773Z,68.85
2023-02-11T15:47:33.764Z,69.16
2023-02-11T15:48:33.725Z,69.26
2023-02-11T15:49:33.694Z,69.16
2023-02-11T15:50:33.694Z,69.29
2023-02-11T15:51:33.714Z,69.19
2023-02-11T15:52:33.685Z,69.19
2023-02-11T15:53:33.641Z,69.29
2023-02-11T15:54:33.645Z,69.29
2023-02-11T15:55:33.684Z,69.50
2023-02-11T15:56:40.639Z,69.50
2023-02-11T15:57:33.577Z,69.60
2023-02-11T15:58:41.619Z,69.64
2023-02-11T15:59:40.578Z,69.94
2023-02-11T16:00:40.722Z,70.04
2023-02-11T16:01:41.606Z,70.15
2023-02-11T16:02:33.585Z,70.39
2023-02-11T16:03:33.519Z,70.59
2023-02-11T16:04:33.547Z,70.90
2023-02-11T16:05:33.542Z,71.14
2023-02-11T16:06:33.477Z,71.24
2023-02-11T16:07:33.569Z,71.24
2023-02-11T16:08:33.467Z,71.55
2023-02-11T16:09:33.440Z,71.69
2023-02-11T16:10:33.495Z,71.69
2023-02-11T16:11:33.632Z,72.00
2023-02-11T16:12:33.478Z,71.92
2023-02-11T16:13:33.376Z,72.13
2023-02-11T16:14:33.384Z,72.44
2023-02-11T16:15:33.559Z,72.54
2023-02-11T16:16:33.486Z,72.68
2023-02-11T16:17:33.325Z,72.99
2023-02-11T16:18:37.666Z,72.88
2023-02-11T16:19:34.316Z,73.13
2023-02-11T16:20:33.343Z,73.23
2023-02-11T16:21:33.391Z,73.43
2023-02-11T16:22:33.299Z,73.64
2023-02-11T16:23:33.282Z,73.78
2023-02-11T16:24:33.277Z,73.88
2023-02-11T16:25:33.599Z,73.88
2023-02-11T16:26:33.238Z,74.08
2023-02-11T16:27:33.201Z,74.29
2023-02-11T16:28:33.281Z,74.40
2023-02-11T16:29:33.173Z,74.29
2023-02-11T16:30:33.239Z,74.29
2023-02-11T16:31:33.312Z,74.63
2023-02-11T16:32:33.158Z,74.84
2023-02-11T16:33:33.110Z,74.84
2023-02-11T16:34:33.129Z,74.95
2023-02-11T16:35:33.337Z,75.15
2023-02-11T16:36:33.120Z,75.18
2023-02-11T16:37:33.092Z,75.39
2023-02-11T16:38:33.069Z,75.49
2023-02-11T16:39:33.051Z,75.81
2023-02-11T16:40:33.311Z,76.01
2023-02-11T16:41:33.162Z,76.15
2023-02-11T16:42:33.062Z,76.46
2023-02-11T16:43:32.988Z,76.56
2023-02-11T16:44:33.006Z,76.46
2023-02-11T16:45:33.007Z,76.67
2023-02-11T16:46:34.009Z,76.53
2023-02-11T16:47:32.935Z,76.67
2023-02-11T16:48:32.950Z,76.87
2023-02-11T16:49:32.918Z,76.98
2023-02-11T16:50:32.961Z,77.08
2023-02-11T16:51:32.888Z,77.18
2023-02-11T16:52:33.111Z,77.28
2023-02-11T16:53:32.854Z,77.28
2023-02-11T16:54:32.857Z,77.28
2023-02-11T16:55:33.149Z,77.39
2023-02-11T16:56:32.844Z,77.39
2023-02-11T16:57:32.827Z,77.49
2023-02-11T16:58:32.824Z,77.49
2023-02-11T16:59:32.785Z,77.49
2023-02-11T17:00:33.026Z,77.49
2023-02-11T17:01:32.889Z,77.80
2023-02-11T17:02:32.771Z,78.21
2023-02-11T17:03:32.835Z,77.80
2023-02-11T17:04:32.755Z,77.80
2023-02-11T17:05:45.802Z,77.80
2023-02-11T17:06:33.710Z,77.91
2023-02-11T17:07:32.892Z,77.80
2023-02-11T17:08:32.750Z,78.01
2023-02-11T17:09:32.751Z,77.91
2023-02-11T17:10:32.657Z,77.91
2023-02-11T17:11:32.709Z,77.91
2023-02-11T17:12:32.644Z,78.01
2023-02-11T17:13:32.692Z,78.31
2023-02-11T17:14:32.609Z,78.11
2023-02-11T17:15:40.238Z,78.01
2023-02-11T17:16:32.676Z,78.11
2023-02-11T17:17:34.519Z,78.11
2023-02-11T17:18:33.309Z,78.01
2023-02-11T17:19:32.558Z,78.11
2023-02-11T17:20:32.639Z,78.11
2023-02-11T17:21:32.520Z,78.31
2023-02-11T17:22:32.512Z,78.31
2023-02-11T17:23:32.577Z,78.52
2023-02-11T17:24:32.493Z,78.63
2023-02-11T17:25:32.986Z,78.63
2023-02-11T17:26:32.447Z,78.63
2023-02-11T17:27:32.453Z,78.73
2023-02-11T17:28:32.486Z,78.73
2023-02-11T17:29:32.404Z,78.73
2023-02-11T17:30:32.579Z,78.73
2023-02-11T17:31:32.556Z,78.73
2023-02-11T17:32:32.383Z,78.73
2023-02-11T17:33:34.557Z,78.83
2023-02-11T17:34:32.399Z,79.04
2023-02-11T17:35:32.357Z,79.14
2023-02-11T17:36:32.473Z,78.94
2023-02-11T17:37:32.280Z,78.83
2023-02-11T17:38:32.398Z,78.94
2023-02-11T17:39:32.250Z,78.94
2023-02-11T17:40:32.424Z,78.94
2023-02-11T17:41:32.266Z,78.94
2023-02-11T17:42:32.230Z,78.94
2023-02-11T17:43:32.212Z,79.14
2023-02-11T17:44:32.220Z,79.14
2023-02-11T17:45:32.293Z,79.25
2023-02-11T17:46:32.281Z,79.35
2023-02-11T17:47:32.180Z,79.38
2023-02-11T17:48:32.163Z,79.80
2023-02-11T17:49:32.124Z,79.59
2023-02-11T17:50:32.219Z,79.49
2023-02-11T17:51:32.096Z,79.59
2023-02-11T17:52:32.203Z,79.69